sensor_id;sensor_type;location;lat;lon;timestamp;pressure;altitude;pressure_sealevel;temperature;humidity
39823;BME280;25499;53.958;10.970;2023-08-31T05:12:05;100313.00;;;12.32;100.00
39823;BME280;25499;53.958;10.970;2023-08-31T05:14:33;100316.44;;;12.35;100.00
39823;BME280;25499;53.958;10.970;2023-08-31T05:17:02;100325.16;;;12.32;100.00
39823;BME280;25499;53.958;10.970;2023-08-31T05:19:30;100331.28;;;12.32;100.00
39823;BME280;25499;53.958;10.970;2023-08-31T05:21:57;100331.34;;;12.28;100.00
39823;BME280;25499;53.958;10.970;2023-08-31T05:24:23;100337.50;;;12.25;100.00
39823;BME280;25499;53.958;10.970;2023-08-31T05:26:50;100343.53;;;12.27;100.00
39823;BME280;25499;53.958;10.970;2023-08-31T05:29:18;100340.91;;;12.29;100.00
39823;BME280;25499;53.958;10.970;2023-08-31T05:31:45;100336.69;;;12.20;100.00
39823;BME280;25499;53.958;10.970;2023-08-31T05:34:16;100347.06;;;12.23;100.00
39823;BME280;25499;53.958;10.970;2023-08-31T05:36:43;100345.47;;;12.16;100.00
39823;BME280;25499;53.958;10.970;2023-08-31T05:39:09;100355.94;;;12.13;100.00
39823;BME280;25499;53.958;10.970;2023-08-31T05:41:36;100351.56;;;12.15;100.00
39823;BME280;25499;53.958;10.970;2023-08-31T05:44:03;100355.94;;;12.13;100.00
39823;BME280;25499;53.958;10.970;2023-08-31T05:46:31;100356.09;;;12.04;100.00
39823;BME280;25499;53.958;10.970;2023-08-31T05:48:58;100361.38;;;11.99;100.00
39823;BME280;25499;53.958;10.970;2023-08-31T05:51:25;100364.75;;;12.06;100.00
39823;BME280;25499;53.958;10.970;2023-08-31T05:53:52;100369.81;;;12.15;100.00
39823;BME280;25499;53.958;10.970;2023-08-31T05:56:19;100368.56;;;12.41;100.00
39823;BME280;25499;53.958;10.970;2023-08-31T05:58:45;100380.28;;;12.66;100.00
39823;BME280;25499;53.958;10.970;2023-08-31T06:01:13;100372.31;;;12.73;100.00
39823;BME280;25499;53.958;10.970;2023-08-31T06:03:41;100370.34;;;12.87;100.00
39823;BME280;25499;53.958;10.970;2023-08-31T06:06:07;100368.06;;;12.68;100.00
39823;BME280;25499;53.958;10.970;2023-08-31T06:08:36;100368.06;;;12.68;100.00
39823;BME280;25499;53.958;10.970;2023-08-31T06:11:03;100371.53;;;12.69;100.00
39823;BME280;25499;53.958;10.970;2023-08-31T06:13:31;100368.84;;;12.74;100.00
39823;BME280;25499;53.958;10.970;2023-08-31T06:15:58;100375.38;;;12.96;100.00
39823;BME280;25499;53.958;10.970;2023-08-31T06:18:25;100367.53;;;12.96;100.00
39823;BME280;25499;53.958;10.970;2023-08-31T06:20:53;100366.38;;;13.11;100.00
39823;BME280;25499;53.958;10.970;2023-08-31T06:23:20;100365.38;;;13.18;100.00
39823;BME280;25499;53.958;10.970;2023-08-31T06:25:47;100363.50;;;13.23;100.00
39823;BME280;25499;53.958;10.970;2023-08-31T06:28:13;100371.91;;;13.42;100.00
39823;BME280;25499;53.958;10.970;2023-08-31T06:30:41;100369.34;;;13.39;100.00
39823;BME280;25499;53.958;10.970;2023-08-31T06:33:11;100363.03;;;13.50;100.00
39823;BME280;25499;53.958;10.970;2023-08-31T06:35:38;100369.16;;;13.86;100.00
39823;BME280;25499;53.958;10.970;2023-08-31T06:38:06;100366.00;;;13.73;100.00
39823;BME280;25499;53.958;10.970;2023-08-31T06:40:33;100365.81;;;13.81;100.00
39823;BME280;25499;53.958;10.970;2023-08-31T06:43:00;100368.16;;;13.93;100.00
39823;BME280;25499;53.958;10.970;2023-08-31T06:45:27;100378.22;;;14.10;100.00
39823;BME280;25499;53.958;10.970;2023-08-31T06:47:54;100375.09;;;13.94;100.00
39823;BME280;25499;53.958;10.970;2023-08-31T06:50:20;100377.59;;;14.01;100.00
39823;BME280;25499;53.958;10.970;2023-08-31T06:52:47;100375.06;;;13.96;100.00
39823;BME280;25499;53.958;10.970;2023-08-31T06:55:15;100383.31;;;14.16;100.00
39823;BME280;25499;53.958;10.970;2023-08-31T06:57:42;100371.59;;;14.31;100.00
39823;BME280;25499;53.958;10.970;2023-08-31T07:00:10;100382.69;;;14.43;100.00
39823;BME280;25499;53.958;10.970;2023-08-31T07:02:40;100387.72;;;14.85;100.00
39823;BME280;25499;53.958;10.970;2023-08-31T07:05:07;100383.47;;;15.12;100.00
39823;BME280;25499;53.958;10.970;2023-08-31T07:07:35;100384.31;;;15.44;100.00
39823;BME280;25499;53.958;10.970;2023-08-31T07:10:02;100384.53;;;15.38;100.00
39823;BME280;25499;53.958;10.970;2023-08-31T07:12:32;100369.31;;;15.19;100.00
39823;BME280;25499;53.958;10.970;2023-08-31T07:14:59;100386.22;;;15.39;100.00
39823;BME280;25499;53.958;10.970;2023-08-31T07:17:26;100387.03;;;15.41;100.00
39823;BME280;25499;53.958;10.970;2023-08-31T07:19:52;100396.81;;;15.65;100.00
39823;BME280;25499;53.958;10.970;2023-08-31T07:22:19;100397.53;;;15.71;100.00
39823;BME280;25499;53.958;10.970;2023-08-31T07:24:46;100391.84;;;15.86;100.00
39823;BME280;25499;53.958;10.970;2023-08-31T07:27:13;100398.19;;;16.07;100.00
39823;BME280;25499;53.958;10.970;2023-08-31T07:29:41;100384.81;;;16.15;100.00
39823;BME280;25499;53.958;10.970;2023-08-31T07:32:07;100386.25;;;16.25;100.00
39823;BME280;25499;53.958;10.970;2023-08-31T07:34:34;100389.25;;;16.66;99.41
39823;BME280;25499;53.958;10.970;2023-08-31T07:37:02;100378.53;;;16.72;97.19
39823;BME280;25499;53.958;10.970;2023-08-31T07:39:29;100365.28;;;16.50;95.51
39823;BME280;25499;53.958;10.970;2023-08-31T07:41:57;100356.47;;;16.51;95.15
39823;BME280;25499;53.958;10.970;2023-08-31T07:44:24;100358.28;;;16.49;94.02
39823;BME280;25499;53.958;10.970;2023-08-31T07:46:53;100364.16;;;16.57;93.64
39823;BME280;25499;53.958;10.970;2023-08-31T07:49:19;100399.06;;;17.13;94.03
39823;BME280;25499;53.958;10.970;2023-08-31T07:51:46;100349.94;;;17.13;91.66
39823;BME280;25499;53.958;10.970;2023-08-31T07:54:19;100346.03;;;17.24;89.69
39823;BME280;25499;53.958;10.970;2023-08-31T07:56:46;100375.41;;;17.82;90.01
39823;BME280;25499;53.958;10.970;2023-08-31T07:59:12;100361.69;;;18.18;88.90
39823;BME280;25499;53.958;10.970;2023-08-31T08:01:40;100347.94;;;18.32;87.22
39823;BME280;25499;53.958;10.970;2023-08-31T08:04:08;100294.56;;;17.84;84.83
39823;BME280;25499;53.958;10.970;2023-08-31T08:06:35;100340.09;;;18.51;84.30
39823;BME280;25499;53.958;10.970;2023-08-31T08:09:02;100341.03;;;18.30;83.62
39823;BME280;25499;53.958;10.970;2023-08-31T08:11:30;100347.75;;;18.57;83.51
39823;BME280;25499;53.958;10.970;2023-08-31T08:13:56;100299.88;;;18.05;81.88
39823;BME280;25499;53.958;10.970;2023-08-31T08:16:23;100342.56;;;18.56;82.02
39823;BME280;25499;53.958;10.970;2023-08-31T08:18:50;100325.94;;;18.54;81.42
39823;BME280;25499;53.958;10.970;2023-08-31T08:21:18;100357.13;;;18.85;81.44
39823;BME280;25499;53.958;10.970;2023-08-31T08:23:45;100305.06;;;18.29;80.56
39823;BME280;25499;53.958;10.970;2023-08-31T08:26:11;100304.50;;;18.20;79.82
39823;BME280;25499;53.958;10.970;2023-08-31T08:28:38;100308.59;;;18.27;79.44
39823;BME280;25499;53.958;10.970;2023-08-31T08:31:05;100244.28;;;17.24;78.31
39823;BME280;25499;53.958;10.970;2023-08-31T08:33:32;100368.88;;;18.15;80.34
39823;BME280;25499;53.958;10.970;2023-08-31T08:36:00;100417.06;;;19.02;81.81
39823;BME280;25499;53.958;10.970;2023-08-31T08:38:28;100328.25;;;19.22;78.52
39823;BME280;25499;53.958;10.970;2023-08-31T08:40:55;100328.31;;;19.77;77.22
39823;BME280;25499;53.958;10.970;2023-08-31T08:43:24;100253.06;;;19.30;75.16
39823;BME280;25499;53.958;10.970;2023-08-31T08:45:53;100261.13;;;18.89;75.25
39823;BME280;25499;53.958;10.970;2023-08-31T08:48:20;100239.28;;;18.05;75.58
39823;BME280;25499;53.958;10.970;2023-08-31T08:50:47;100299.66;;;17.89;76.80
39823;BME280;25499;53.958;10.970;2023-08-31T08:53:14;100354.00;;;18.55;77.74
39823;BME280;25499;53.958;10.970;2023-08-31T08:55:42;100289.84;;;18.35;76.14
39823;BME280;25499;53.958;10.970;2023-08-31T08:58:09;100320.75;;;18.32;76.53
39823;BME280;25499;53.958;10.970;2023-08-31T09:00:36;100328.75;;;18.70;76.14
39823;BME280;25499;53.958;10.970;2023-08-31T09:03:04;100331.66;;;19.24;75.67
39823;BME280;25499;53.958;10.970;2023-08-31T09:05:31;100281.53;;;19.05;74.25
39823;BME280;25499;53.958;10.970;2023-08-31T09:08:03;100293.63;;;19.09;74.28
39823;BME280;25499;53.958;10.970;2023-08-31T09:10:34;100309.34;;;19.12;74.33
39823;BME280;25499;53.958;10.970;2023-08-31T09:13:05;100286.72;;;19.44;73.27
39823;BME280;25499;53.958;10.970;2023-08-31T09:15:43;100215.09;;;18.57;72.54
39823;BME280;25499;53.958;10.970;2023-08-31T09:18:17;100245.09;;;18.34;72.90
39823;BME280;25499;53.958;10.970;2023-08-31T09:20:49;100303.66;;;18.61;73.22
39823;BME280;25499;53.958;10.970;2023-08-31T09:23:16;100252.91;;;18.56;72.22
39823;BME280;25499;53.958;10.970;2023-08-31T09:25:44;100296.41;;;19.06;72.25
39823;BME280;25499;53.958;10.970;2023-08-31T09:28:13;100274.75;;;19.18;71.48
39823;BME280;25499;53.958;10.970;2023-08-31T09:30:40;100327.19;;;20.18;70.96
39823;BME280;25499;53.958;10.970;2023-08-31T09:33:09;100303.47;;;20.51;70.26
39823;BME280;25499;53.958;10.970;2023-08-31T09:35:39;100282.09;;;20.56;69.20
39823;BME280;25499;53.958;10.970;2023-08-31T09:38:07;100198.63;;;19.82;68.15
39823;BME280;25499;53.958;10.970;2023-08-31T09:40:34;100231.84;;;20.56;66.99
39823;BME280;25499;53.958;10.970;2023-08-31T09:43:00;100252.53;;;21.30;66.22
39823;BME280;25499;53.958;10.970;2023-08-31T09:45:31;100187.94;;;21.01;64.54
39823;BME280;25499;53.958;10.970;2023-08-31T09:47:59;100180.00;;;21.01;63.46
39823;BME280;25499;53.958;10.970;2023-08-31T09:50:28;100144.56;;;21.19;61.92
39823;BME280;25499;53.958;10.970;2023-08-31T09:52:56;100182.06;;;20.96;62.96
39823;BME280;25499;53.958;10.970;2023-08-31T09:55:27;100252.69;;;21.43;63.40
39823;BME280;25499;53.958;10.970;2023-08-31T09:57:56;100170.34;;;20.84;62.37
39823;BME280;25499;53.958;10.970;2023-08-31T10:00:23;100122.16;;;19.61;63.96
39823;BME280;25499;53.958;10.970;2023-08-31T10:02:52;100127.09;;;19.15;64.35
39823;BME280;25499;53.958;10.970;2023-08-31T10:05:20;100190.47;;;19.32;65.10
39823;BME280;25499;53.958;10.970;2023-08-31T10:07:48;100161.91;;;19.04;65.15
39823;BME280;25499;53.958;10.970;2023-08-31T10:10:15;100203.34;;;19.57;64.68
39823;BME280;25499;53.958;10.970;2023-08-31T10:12:44;100170.31;;;19.66;64.01
39823;BME280;25499;53.958;10.970;2023-08-31T10:15:11;100258.63;;;20.32;64.29
39823;BME280;25499;53.958;10.970;2023-08-31T10:17:39;100300.19;;;21.46;64.05
39823;BME280;25499;53.958;10.970;2023-08-31T10:20:09;100216.97;;;21.50;61.93
39823;BME280;25499;53.958;10.970;2023-08-31T10:22:38;100180.47;;;21.55;60.99
39823;BME280;25499;53.958;10.970;2023-08-31T10:25:06;100086.13;;;20.76;60.63
39823;BME280;25499;53.958;10.970;2023-08-31T10:27:36;100287.38;;;21.86;62.81
39823;BME280;25499;53.958;10.970;2023-08-31T10:30:15;100146.69;;;21.29;61.66
39823;BME280;25499;53.958;10.970;2023-08-31T10:32:42;100253.88;;;22.30;61.19
39823;BME280;25499;53.958;10.970;2023-08-31T10:35:10;100216.00;;;22.71;59.55
39823;BME280;25499;53.958;10.970;2023-08-31T10:37:39;100144.47;;;22.41;58.58
39823;BME280;25499;53.958;10.970;2023-08-31T10:40:07;100123.16;;;22.28;57.65
39823;BME280;25499;53.958;10.970;2023-08-31T10:42:43;100224.06;;;22.55;59.19
39823;BME280;25499;53.958;10.970;2023-08-31T10:45:10;100166.78;;;22.08;58.68
39823;BME280;25499;53.958;10.970;2023-08-31T10:47:37;100135.53;;;21.98;58.05
39823;BME280;25499;53.958;10.970;2023-08-31T10:50:21;100087.50;;;21.60;57.67
39823;BME280;25499;53.958;10.970;2023-08-31T10:52:49;100168.03;;;21.57;58.91
39823;BME280;25499;53.958;10.970;2023-08-31T10:55:15;100145.94;;;21.11;59.45
39823;BME280;25499;53.958;10.970;2023-08-31T10:57:43;100222.09;;;21.05;61.41
39823;BME280;25499;53.958;10.970;2023-08-31T11:00:11;100277.44;;;21.26;62.40
39823;BME280;25499;53.958;10.970;2023-08-31T11:02:42;100257.22;;;21.41;61.79
39823;BME280;25499;53.958;10.970;2023-08-31T11:05:10;100253.72;;;21.56;61.21
39823;BME280;25499;53.958;10.970;2023-08-31T11:07:39;100199.16;;;21.98;59.13
39823;BME280;25499;53.958;10.970;2023-08-31T11:10:15;100188.41;;;21.71;59.32
39823;BME280;25499;53.958;10.970;2023-08-31T11:12:43;100171.84;;;20.90;60.46
39823;BME280;25499;53.958;10.970;2023-08-31T11:15:14;100258.16;;;21.08;61.56
39823;BME280;25499;53.958;10.970;2023-08-31T11:17:40;100322.59;;;21.88;62.05
39823;BME280;25499;53.958;10.970;2023-08-31T11:20:08;100106.69;;;21.33;57.91
39823;BME280;25499;53.958;10.970;2023-08-31T11:22:40;100144.97;;;21.28;58.14
39823;BME280;25499;53.958;10.970;2023-08-31T11:25:08;100258.94;;;22.49;58.48
39823;BME280;25499;53.958;10.970;2023-08-31T11:27:35;100134.16;;;21.77;57.39
39823;BME280;25499;53.958;10.970;2023-08-31T11:30:03;100145.28;;;21.53;57.77
39823;BME280;25499;53.958;10.970;2023-08-31T11:32:30;100263.56;;;22.31;58.30
39823;BME280;25499;53.958;10.970;2023-08-31T11:34:56;100094.78;;;21.56;56.58
39823;BME280;25499;53.958;10.970;2023-08-31T11:37:23;100106.00;;;22.05;55.87
39823;BME280;25499;53.958;10.970;2023-08-31T11:42:20;100166.41;;;23.27;54.37
39823;BME280;25499;53.958;10.970;2023-08-31T11:44:48;100166.56;;;23.12;54.92
39823;BME280;25499;53.958;10.970;2023-08-31T11:47:16;100145.59;;;22.92;54.97
39823;BME280;25499;53.958;10.970;2023-08-31T11:49:43;100088.66;;;22.84;53.55
39823;BME280;25499;53.958;10.970;2023-08-31T11:52:11;100192.38;;;22.95;55.50
39823;BME280;25499;53.958;10.970;2023-08-31T11:54:38;100161.53;;;22.92;54.35
39823;BME280;25499;53.958;10.970;2023-08-31T11:57:08;100137.53;;;22.94;54.06
39823;BME280;25499;53.958;10.970;2023-08-31T11:59:36;100051.38;;;22.31;53.67
39823;BME280;25499;53.958;10.970;2023-08-31T12:02:05;100154.16;;;23.25;53.87
39823;BME280;25499;53.958;10.970;2023-08-31T12:04:32;100065.94;;;23.07;52.24
39823;BME280;25499;53.958;10.970;2023-08-31T12:07:01;100082.53;;;22.96;53.10
39823;BME280;25499;53.958;10.970;2023-08-31T12:09:30;100081.75;;;22.54;53.07
39823;BME280;25499;53.958;10.970;2023-08-31T12:11:58;100161.81;;;23.02;54.19
39823;BME280;25499;53.958;10.970;2023-08-31T12:14:27;100187.75;;;23.53;53.97
39823;BME280;25499;53.958;10.970;2023-08-31T12:17:01;100170.59;;;23.84;53.21
39823;BME280;25499;53.958;10.970;2023-08-31T12:19:28;100118.94;;;23.89;51.45
39823;BME280;25499;53.958;10.970;2023-08-31T12:21:56;100169.28;;;23.77;52.96
39823;BME280;25499;53.958;10.970;2023-08-31T12:24:23;100090.59;;;23.62;51.75
39823;BME280;25499;53.958;10.970;2023-08-31T12:26:50;100068.97;;;23.01;52.08
39823;BME280;25499;53.958;10.970;2023-08-31T12:29:19;100190.66;;;23.08;53.90
39823;BME280;25499;53.958;10.970;2023-08-31T12:31:47;100213.75;;;23.21;54.51
39823;BME280;25499;53.958;10.970;2023-08-31T12:34:14;100207.53;;;23.07;55.22
39823;BME280;25499;53.958;10.970;2023-08-31T12:36:41;100174.59;;;22.40;55.97
39823;BME280;25499;53.958;10.970;2023-08-31T12:39:08;100240.06;;;22.82;56.26
39823;BME280;25499;53.958;10.970;2023-08-31T12:41:36;100170.00;;;21.98;56.68
39823;BME280;25499;53.958;10.970;2023-08-31T12:44:03;100232.47;;;21.72;58.14
39823;BME280;25499;53.958;10.970;2023-08-31T12:46:30;100282.53;;;21.63;59.72
39823;BME280;25499;53.958;10.970;2023-08-31T12:48:59;100266.50;;;21.80;59.26
39823;BME280;25499;53.958;10.970;2023-08-31T12:51:26;100207.44;;;21.78;58.11
39823;BME280;25499;53.958;10.970;2023-08-31T12:53:53;100083.72;;;21.34;56.21
39823;BME280;25499;53.958;10.970;2023-08-31T12:56:20;100066.84;;;20.74;56.24
39823;BME280;25499;53.958;10.970;2023-08-31T12:58:49;100122.38;;;21.06;56.84
39823;BME280;25499;53.958;10.970;2023-08-31T13:01:16;100100.19;;;20.61;57.82
39823;BME280;25499;53.958;10.970;2023-08-31T13:03:43;100227.78;;;20.66;60.05
39823;BME280;25499;53.958;10.970;2023-08-31T13:06:12;100152.59;;;20.21;59.35
39823;BME280;25499;53.958;10.970;2023-08-31T13:08:39;100158.22;;;19.62;61.16
39823;BME280;25499;53.958;10.970;2023-08-31T13:11:06;100210.72;;;19.68;61.98
39823;BME280;25499;53.958;10.970;2023-08-31T13:13:32;100248.22;;;19.57;63.38
39823;BME280;25499;53.958;10.970;2023-08-31T13:15:59;100277.97;;;19.61;63.63
39823;BME280;25499;53.958;10.970;2023-08-31T13:18:26;100310.69;;;19.78;64.17
39823;BME280;25499;53.958;10.970;2023-08-31T13:20:53;100275.63;;;19.74;64.35
39823;BME280;25499;53.958;10.970;2023-08-31T13:23:22;100229.06;;;19.71;62.62
39823;BME280;25499;53.958;10.970;2023-08-31T13:25:49;100263.31;;;19.55;64.01
39823;BME280;25499;53.958;10.970;2023-08-31T13:28:17;100260.34;;;19.62;64.25
39823;BME280;25499;53.958;10.970;2023-08-31T13:30:44;100234.09;;;19.59;63.39
39823;BME280;25499;53.958;10.970;2023-08-31T13:33:11;100253.88;;;19.50;63.84
39823;BME280;25499;53.958;10.970;2023-08-31T13:35:38;100255.13;;;19.60;64.06
39823;BME280;25499;53.958;10.970;2023-08-31T13:38:05;100173.56;;;19.36;62.60
39823;BME280;25499;53.958;10.970;2023-08-31T13:40:35;100249.19;;;19.74;63.25
39823;BME280;25499;53.958;10.970;2023-08-31T13:43:02;100274.19;;;19.67;64.05
39823;BME280;25499;53.958;10.970;2023-08-31T13:45:30;100293.13;;;19.77;64.63
39823;BME280;25499;53.958;10.970;2023-08-31T13:47:57;100189.84;;;19.64;62.39
39823;BME280;25499;53.958;10.970;2023-08-31T13:50:25;100191.31;;;19.52;62.66
39823;BME280;25499;53.958;10.970;2023-08-31T13:52:52;100233.44;;;19.53;63.07
39823;BME280;25499;53.958;10.970;2023-08-31T13:55:19;100245.56;;;19.40;64.51
39823;BME280;25499;53.958;10.970;2023-08-31T13:57:48;100275.38;;;19.42;65.41
39823;BME280;25499;53.958;10.970;2023-08-31T14:00:15;100273.59;;;19.43;65.08
39823;BME280;25499;53.958;10.970;2023-08-31T14:02:42;100251.00;;;19.54;64.06
39823;BME280;25499;53.958;10.970;2023-08-31T14:05:10;100201.22;;;19.47;63.23
39823;BME280;25499;53.958;10.970;2023-08-31T14:07:37;100187.66;;;19.18;63.28
39823;BME280;25499;53.958;10.970;2023-08-31T14:10:05;100229.75;;;19.02;64.14
39823;BME280;25499;53.958;10.970;2023-08-31T14:12:32;100281.38;;;19.08;65.61
39823;BME280;25499;53.958;10.970;2023-08-31T14:15:00;100348.09;;;19.49;66.35
39823;BME280;25499;53.958;10.970;2023-08-31T14:17:30;100316.97;;;19.56;65.86
39823;BME280;25499;53.958;10.970;2023-08-31T14:19:58;100274.75;;;19.37;65.40
39823;BME280;25499;53.958;10.970;2023-08-31T14:22:25;100257.72;;;19.06;65.21
39823;BME280;25499;53.958;10.970;2023-08-31T14:24:53;100235.22;;;18.97;64.45
39823;BME280;25499;53.958;10.970;2023-08-31T14:27:20;100246.16;;;18.90;65.10
39823;BME280;25499;53.958;10.970;2023-08-31T14:29:48;100256.34;;;18.77;65.75
39823;BME280;25499;53.958;10.970;2023-08-31T14:32:16;100271.59;;;18.70;66.06
39823;BME280;25499;53.958;10.970;2023-08-31T14:34:43;100296.41;;;18.66;66.58
39823;BME280;25499;53.958;10.970;2023-08-31T14:37:10;100303.00;;;18.56;67.44
39823;BME280;25499;53.958;10.970;2023-08-31T14:39:36;100339.91;;;18.56;67.78
39823;BME280;25499;53.958;10.970;2023-08-31T14:42:03;100339.06;;;18.55;68.50
39823;BME280;25499;53.958;10.970;2023-08-31T14:44:31;100335.63;;;18.53;68.05
39823;BME280;25499;53.958;10.970;2023-08-31T14:46:59;100353.28;;;18.51;68.45
39823;BME280;25499;53.958;10.970;2023-08-31T14:49:27;100369.69;;;18.58;69.17
39823;BME280;25499;53.958;10.970;2023-08-31T14:51:54;100370.09;;;18.49;69.55
39823;BME280;25499;53.958;10.970;2023-08-31T14:54:21;100395.22;;;18.57;69.90
39823;BME280;25499;53.958;10.970;2023-08-31T14:56:49;100381.97;;;18.59;69.31
39823;BME280;25499;53.958;10.970;2023-08-31T14:59:16;100401.09;;;18.64;69.86
39823;BME280;25499;53.958;10.970;2023-08-31T15:01:43;100404.03;;;18.56;69.86
39823;BME280;25499;53.958;10.970;2023-08-31T15:04:11;100319.28;;;18.24;68.77
39823;BME280;25499;53.958;10.970;2023-08-31T15:06:39;100340.63;;;18.39;68.41
39823;BME280;25499;53.958;10.970;2023-08-31T15:09:06;100370.97;;;18.49;69.40
39823;BME280;25499;53.958;10.970;2023-08-31T15:11:32;100335.78;;;18.50;67.63
39823;BME280;25499;53.958;10.970;2023-08-31T15:13:59;100333.78;;;18.55;67.63
39823;BME280;25499;53.958;10.970;2023-08-31T15:16:26;100338.25;;;18.53;67.90
39823;BME280;25499;53.958;10.970;2023-08-31T15:18:53;100358.19;;;18.40;68.27
39823;BME280;25499;53.958;10.970;2023-08-31T15:21:20;100381.31;;;18.54;68.56
39823;BME280;25499;53.958;10.970;2023-08-31T15:23:48;100400.50;;;18.57;69.04
39823;BME280;25499;53.958;10.970;2023-08-31T15:26:15;100400.50;;;18.57;69.19
39823;BME280;25499;53.958;10.970;2023-08-31T15:28:43;100368.72;;;18.40;68.87
39823;BME280;25499;53.958;10.970;2023-08-31T15:31:11;100302.22;;;18.13;67.73
39823;BME280;25499;53.958;10.970;2023-08-31T15:33:38;100281.44;;;17.83;67.74
39823;BME280;25499;53.958;10.970;2023-08-31T15:36:06;100295.56;;;17.80;67.54
39823;BME280;25499;53.958;10.970;2023-08-31T15:38:34;100217.56;;;17.35;66.14
39823;BME280;25499;53.958;10.970;2023-08-31T15:41:04;100267.97;;;17.46;66.59
39823;BME280;25499;53.958;10.970;2023-08-31T15:43:31;100265.53;;;17.64;66.35
39823;BME280;25499;53.958;10.970;2023-08-31T15:45:59;100274.22;;;17.66;66.16
39823;BME280;25499;53.958;10.970;2023-08-31T15:48:26;100249.00;;;17.60;65.66
39823;BME280;25499;53.958;10.970;2023-08-31T15:50:54;100260.44;;;17.59;65.51
39823;BME280;25499;53.958;10.970;2023-08-31T15:53:21;100265.78;;;17.58;65.94
39823;BME280;25499;53.958;10.970;2023-08-31T15:55:48;100277.25;;;17.57;65.99
39823;BME280;25499;53.958;10.970;2023-08-31T15:58:16;100261.69;;;17.50;65.94
39823;BME280;25499;53.958;10.970;2023-08-31T16:00:43;100259.16;;;17.47;65.74
39823;BME280;25499;53.958;10.970;2023-08-31T16:03:10;100263.09;;;17.37;66.48
39823;BME280;25499;53.958;10.970;2023-08-31T16:05:37;100270.28;;;17.32;66.45
39823;BME280;25499;53.958;10.970;2023-08-31T16:08:05;100273.63;;;17.13;66.86
39823;BME280;25499;53.958;10.970;2023-08-31T16:10:31;100284.47;;;17.06;67.29
39823;BME280;25499;53.958;10.970;2023-08-31T16:12:59;100299.56;;;17.01;67.85
39823;BME280;25499;53.958;10.970;2023-08-31T16:15:27;100339.00;;;17.01;68.72
39823;BME280;25499;53.958;10.970;2023-08-31T16:17:55;100354.72;;;17.02;68.57
39823;BME280;25499;53.958;10.970;2023-08-31T16:20:22;100369.88;;;16.95;69.74
39823;BME280;25499;53.958;10.970;2023-08-31T16:22:49;100382.91;;;16.99;70.04
39823;BME280;25499;53.958;10.970;2023-08-31T16:25:16;100396.03;;;16.99;70.26
39823;BME280;25499;53.958;10.970;2023-08-31T16:27:44;100400.47;;;16.98;70.43
39823;BME280;25499;53.958;10.970;2023-08-31T16:30:12;100409.34;;;16.95;70.82
39823;BME280;25499;53.958;10.970;2023-08-31T16:32:42;100394.59;;;16.90;70.70
39823;BME280;25499;53.958;10.970;2023-08-31T16:35:12;100420.00;;;16.91;71.12
39823;BME280;25499;53.958;10.970;2023-08-31T16:37:39;100426.16;;;16.90;71.96
39823;BME280;25499;53.958;10.970;2023-08-31T16:40:09;100458.06;;;16.79;72.86
39823;BME280;25499;53.958;10.970;2023-08-31T16:42:37;100469.47;;;16.78;73.57
39823;BME280;25499;53.958;10.970;2023-08-31T16:45:06;100476.72;;;16.71;73.62
39823;BME280;25499;53.958;10.970;2023-08-31T16:47:33;100479.59;;;16.64;73.98
39823;BME280;25499;53.958;10.970;2023-08-31T16:50:01;100473.69;;;16.57;74.46
39823;BME280;25499;53.958;10.970;2023-08-31T16:52:29;100481.09;;;16.44;75.06
39823;BME280;25499;53.958;10.970;2023-08-31T16:54:55;100484.69;;;16.41;75.27
39823;BME280;25499;53.958;10.970;2023-08-31T16:57:22;100496.75;;;16.47;75.65
39823;BME280;25499;53.958;10.970;2023-08-31T16:59:49;100500.28;;;16.46;75.83
39823;BME280;25499;53.958;10.970;2023-08-31T17:02:16;100503.88;;;16.44;76.31
39823;BME280;25499;53.958;10.970;2023-08-31T17:04:42;100503.09;;;16.41;76.89
39823;BME280;25499;53.958;10.970;2023-08-31T17:07:11;100510.34;;;16.33;77.13
39823;BME280;25499;53.958;10.970;2023-08-31T17:09:37;100521.06;;;16.26;77.99
39823;BME280;25499;53.958;10.970;2023-08-31T17:12:06;100516.31;;;16.09;78.41
39823;BME280;25499;53.958;10.970;2023-08-31T17:14:33;100503.25;;;16.07;77.98
39823;BME280;25499;53.958;10.970;2023-08-31T17:17:00;100510.34;;;16.03;78.19
39823;BME280;25499;53.958;10.970;2023-08-31T17:19:28;100506.09;;;15.99;78.75
39823;BME280;25499;53.958;10.970;2023-08-31T17:21:55;100501.91;;;15.94;78.99
39823;BME280;25499;53.958;10.970;2023-08-31T17:24:23;100506.66;;;15.81;79.10
39823;BME280;25499;53.958;10.970;2023-08-31T17:26:50;100508.66;;;15.70;80.11
39823;BME280;25499;53.958;10.970;2023-08-31T17:29:17;100508.50;;;15.77;79.92
39823;BME280;25499;53.958;10.970;2023-08-31T17:31:43;100509.50;;;15.72;80.28
39823;BME280;25499;53.958;10.970;2023-08-31T17:34:10;100524.41;;;15.70;80.29
39823;BME280;25499;53.958;10.970;2023-08-31T17:36:40;100525.47;;;15.64;80.82
39823;BME280;25499;53.958;10.970;2023-08-31T17:39:07;100522.19;;;15.56;81.22
39823;BME280;25499;53.958;10.970;2023-08-31T17:41:35;100512.81;;;15.47;81.37
39823;BME280;25499;53.958;10.970;2023-08-31T17:44:02;100530.44;;;15.42;81.88
39823;BME280;25499;53.958;10.970;2023-08-31T17:46:29;100543.00;;;15.29;83.48
39823;BME280;25499;53.958;10.970;2023-08-31T17:48:56;100541.34;;;15.26;83.34
39823;BME280;25499;53.958;10.970;2023-08-31T17:51:23;100538.84;;;15.20;83.67
39823;BME280;25499;53.958;10.970;2023-08-31T17:53:49;100551.25;;;15.14;84.20